Time;durP1;ratioP1;P1;durP2;ratioP2;P2;SDS_P1;SDS_P2;PMS_P1;PMS_P2;Temp;Humidity;BMP_temperature;BMP_pressure;BME280_temperature;BME280_humidity;BME280_pressure;Samples;Min_cycle;Max_cycle;Signal;HPM_P1;HPM_P2
2022/10/29 00:00:11;;;;;;;0.40;0.40;;;17.00;99.90;;;;;;5074749;28;20287;-66
2022/10/29 00:02:59;;;;;;;0.30;0.30;;;17.10;99.90;;;;;;5073993;28;20579;-67
2022/10/29 00:05:59;;;;;;;0.40;0.40;;;17.10;99.90;;;;;;5086354;28;20204;-67
2022/10/29 00:08:47;;;;;;;0.40;0.40;;;17.10;99.90;;;;;;5080180;28;20302;-67
2022/10/29 00:11:35;;;;;;;0.40;0.40;;;17.10;99.90;;;;;;5080668;28;20211;-67
2022/10/29 00:14:23;;;;;;;0.40;0.40;;;17.10;99.90;;;;;;5085137;28;20196;-66
2022/10/29 00:17:14;;;;;;;0.40;0.40;;;17.10;99.90;;;;;;5091078;28;20212;-66
2022/10/29 00:20:03;;;;;;;0.70;0.70;;;17.20;99.90;;;;;;5093028;28;20231;-66
2022/10/29 00:22:53;;;;;;;0.40;0.40;;;17.20;99.90;;;;;;5095508;28;20211;-67
2022/10/29 00:25:42;;;;;;;0.40;0.40;;;17.20;99.90;;;;;;5097138;28;20216;-67
2022/10/29 00:28:30;;;;;;;0.40;0.40;;;17.30;99.90;;;;;;5099542;28;20217;-67
2022/10/29 00:31:19;;;;;;;0.40;0.40;;;17.20;99.90;;;;;;5097509;28;20228;-67
2022/10/29 00:34:08;;;;;;;0.40;0.40;;;17.30;99.90;;;;;;5096417;28;20266;-66
2022/10/29 00:36:56;;;;;;;7.15;2.70;;;17.30;99.90;;;;;;5084009;28;20683;-66
2022/10/29 00:39:44;;;;;;;0.82;0.82;;;17.30;99.90;;;;;;5082510;28;20221;-66
2022/10/29 00:42:32;;;;;;;0.40;0.40;;;17.30;99.90;;;;;;5082729;28;20201;-66
2022/10/29 00:45:21;;;;;;;0.40;0.40;;;17.40;99.90;;;;;;5080789;28;20278;-66
2022/10/29 00:48:09;;;;;;;66.20;34.38;;;17.40;99.90;;;;;;5078906;28;20281;-66
2022/10/29 00:51:00;;;;;;;0.40;0.40;;;17.40;99.90;;;;;;5078060;28;20582;-66
2022/10/29 00:53:54;;;;;;;0.40;0.40;;;17.50;99.90;;;;;;5078130;28;20196;-66
2022/10/29 00:56:47;;;;;;;0.40;0.40;;;17.40;99.90;;;;;;5071497;28;20280;-67
2022/10/29 00:59:35;;;;;;;0.52;0.52;;;17.50;99.90;;;;;;5056380;28;20268;-66
2022/10/29 01:02:24;;;;;;;4.80;1.75;;;17.40;99.90;;;;;;5056328;28;20584;-67
2022/10/29 01:05:14;;;;;;;0.30;0.30;;;17.40;99.90;;;;;;5055530;28;20206;-66
2022/10/29 01:08:04;;;;;;;0.40;0.40;;;17.40;99.90;;;;;;5055564;28;20297;-66
2022/10/29 01:11:02;;;;;;;1.20;1.10;;;17.30;99.90;;;;;;5056159;28;20280;-66
2022/10/29 01:14:02;;;;;;;0.68;0.68;;;17.30;99.90;;;;;;5056008;28;20209;-66
2022/10/29 01:16:55;;;;;;;0.70;0.70;;;17.20;99.90;;;;;;5055656;28;20233;-66
2022/10/29 01:20:07;;;;;;;0.40;0.40;;;17.10;99.90;;;;;;5055752;28;20205;-67
2022/10/29 01:23:11;;;;;;;0.68;0.68;;;17.10;99.90;;;;;;5054967;28;20800;-66
2022/10/29 01:26:18;;;;;;;0.40;0.40;;;17.10;99.90;;;;;;5055216;28;20358;-66
2022/10/29 01:29:20;;;;;;;0.40;0.40;;;17.20;99.90;;;;;;5055238;28;20231;-66
2022/10/29 01:32:12;;;;;;;0.40;0.40;;;17.00;99.90;;;;;;5055506;28;20280;-66
2022/10/29 01:35:06;;;;;;;0.40;0.40;;;17.00;99.90;;;;;;5055082;28;20315;-66
2022/10/29 01:38:07;;;;;;;0.40;0.40;;;17.00;99.90;;;;;;5054365;28;20217;-66
2022/10/29 01:41:03;;;;;;;0.43;0.43;;;17.00;99.90;;;;;;5054828;28;20280;-66
2022/10/29 01:43:55;;;;;;;2.15;2.05;;;17.00;99.90;;;;;;5055025;28;20221;-66
2022/10/29 01:46:48;;;;;;;0.40;0.40;;;16.90;99.90;;;;;;5054203;28;20725;-66
2022/10/29 01:49:40;;;;;;;0.40;0.40;;;16.90;99.90;;;;;;5054045;28;20217;-66
2022/10/29 01:52:32;;;;;;;0.40;0.40;;;16.90;99.90;;;;;;5053874;28;20279;-66
2022/10/29 01:55:30;;;;;;;1.08;1.08;;;16.90;99.90;;;;;;5053080;28;20247;-66
2022/10/29 01:58:19;;;;;;;0.40;0.40;;;16.80;99.90;;;;;;5058309;28;20283;-66
2022/10/29 02:01:18;;;;;;;0.40;0.40;;;16.80;99.90;;;;;;5053301;28;20197;-66
2022/10/29 02:04:23;;;;;;;0.40;0.40;;;16.80;99.90;;;;;;5053637;28;20197;-66
2022/10/29 02:07:20;;;;;;;0.40;0.40;;;16.80;99.90;;;;;;5054259;28;20304;-66
2022/10/29 02:10:17;;;;;;;0.40;0.40;;;16.80;99.90;;;;;;5052951;28;20228;-66
2022/10/29 02:13:06;;;;;;;0.47;0.43;;;16.70;99.90;;;;;;5054062;28;20667;-66
2022/10/29 02:15:56;;;;;;;0.40;0.40;;;16.80;99.90;;;;;;5053846;28;20682;-66
2022/10/29 02:18:47;;;;;;;0.47;0.47;;;16.70;99.90;;;;;;5054103;28;20315;-66
2022/10/29 02:21:35;;;;;;;0.40;0.40;;;16.70;99.90;;;;;;5059093;28;20301;-66
2022/10/29 02:24:24;;;;;;;0.40;0.40;;;16.60;99.90;;;;;;5065834;28;20198;-66
2022/10/29 02:27:12;;;;;;;0.30;0.30;;;16.60;99.90;;;;;;5067764;28;20244;-66
2022/10/29 02:30:00;;;;;;;0.40;0.40;;;16.60;99.90;;;;;;5067880;28;20236;-66
2022/10/29 02:32:48;;;;;;;0.40;0.40;;;16.60;99.90;;;;;;5065501;28;20280;-66
2022/10/29 02:35:36;;;;;;;0.40;0.40;;;16.60;99.90;;;;;;5069976;28;20197;-67
2022/10/29 02:38:24;;;;;;;0.40;0.40;;;16.60;99.90;;;;;;5069041;28;20228;-66
2022/10/29 02:41:14;;;;;;;0.40;0.40;;;16.60;99.90;;;;;;5064638;28;20198;-67
2022/10/29 02:44:02;;;;;;;0.40;0.40;;;16.70;99.90;;;;;;5064687;28;20269;-67
2022/10/29 02:46:50;;;;;;;0.40;0.40;;;16.70;99.90;;;;;;5068850;28;20235;-67
2022/10/29 02:49:38;;;;;;;0.40;0.40;;;16.60;99.90;;;;;;5066468;28;20213;-67
2022/10/29 02:52:26;;;;;;;0.30;0.30;;;16.70;99.90;;;;;;5068178;28;20266;-67
2022/10/29 02:55:14;;;;;;;0.65;0.65;;;16.70;99.90;;;;;;5073583;28;20201;-66
2022/10/29 02:58:03;;;;;;;0.40;0.40;;;16.70;99.90;;;;;;5077346;28;20280;-67
2022/10/29 03:00:52;;;;;;;0.40;0.40;;;16.60;99.90;;;;;;5075080;28;20249;-67
2022/10/29 03:03:40;;;;;;;0.40;0.40;;;16.60;99.90;;;;;;5074506;28;20257;-67
2022/10/29 03:06:28;;;;;;;0.40;0.40;;;16.60;99.90;;;;;;5075940;28;20193;-67
2022/10/29 03:09:16;;;;;;;0.40;0.40;;;16.50;99.90;;;;;;5052808;28;20296;-66
2022/10/29 03:12:05;;;;;;;0.40;0.40;;;16.50;99.90;;;;;;5053607;28;20299;-66
2022/10/29 03:14:54;;;;;;;0.40;0.40;;;16.50;99.90;;;;;;5053329;28;20284;-66
2022/10/29 03:17:42;;;;;;;0.40;0.40;;;16.50;99.90;;;;;;5052594;28;20643;-66
2022/10/29 03:20:30;;;;;;;0.40;0.40;;;16.50;99.90;;;;;;5052541;28;20547;-66
2022/10/29 03:23:19;;;;;;;0.40;0.40;;;16.50;99.90;;;;;;5051435;28;20239;-66
2022/10/29 03:26:07;;;;;;;0.40;0.40;;;16.50;99.90;;;;;;5052669;28;20557;-66
2022/10/29 03:28:56;;;;;;;0.40;0.40;;;16.50;99.90;;;;;;5052465;28;20592;-66
2022/10/29 03:31:45;;;;;;;0.40;0.40;;;16.50;99.90;;;;;;5053025;28;20193;-66
2022/10/29 03:34:33;;;;;;;0.40;0.40;;;16.40;99.90;;;;;;5052736;28;20201;-66
2022/10/29 03:37:21;;;;;;;0.40;0.40;;;16.40;99.90;;;;;;5052291;28;20298;-66
2022/10/29 03:40:09;;;;;;;0.40;0.40;;;16.40;99.90;;;;;;5052212;28;20229;-66
2022/10/29 03:42:58;;;;;;;0.40;0.40;;;16.40;99.90;;;;;;5052530;28;20201;-66
2022/10/29 03:45:50;;;;;;;0.40;0.40;;;16.30;99.90;;;;;;5052263;28;20233;-66
2022/10/29 03:48:40;;;;;;;0.40;0.40;;;16.30;99.90;;;;;;5052273;28;20335;-66
2022/10/29 03:51:28;;;;;;;0.40;0.40;;;16.30;99.90;;;;;;5052202;28;20229;-66
2022/10/29 03:54:16;;;;;;;0.40;0.40;;;16.30;99.90;;;;;;5052473;28;20628;-66
2022/10/29 03:57:04;;;;;;;0.40;0.40;;;16.30;99.90;;;;;;5057933;28;20339;-66
2022/10/29 03:59:52;;;;;;;0.40;0.40;;;16.30;99.90;;;;;;5049595;28;20193;-66
2022/10/29 04:02:40;;;;;;;0.40;0.40;;;16.20;99.90;;;;;;5050946;28;20280;-66
2022/10/29 04:05:30;;;;;;;0.40;0.40;;;16.20;99.90;;;;;;5051078;28;20211;-66
2022/10/29 04:08:18;;;;;;;0.40;0.40;;;16.30;99.90;;;;;;5051071;28;20363;-66
2022/10/29 04:11:06;;;;;;;0.40;0.40;;;16.20;99.90;;;;;;5050682;28;20307;-66
2022/10/29 04:13:55;;;;;;;0.40;0.40;;;16.20;99.90;;;;;;5051034;28;20212;-66
2022/10/29 04:16:43;;;;;;;0.40;0.40;;;16.20;99.90;;;;;;5050730;28;20257;-66
2022/10/29 04:19:31;;;;;;;0.40;0.40;;;16.10;99.90;;;;;;5073877;23;20320;-70
2022/10/29 04:22:20;;;;;;;0.40;0.40;;;16.10;99.90;;;;;;5050785;28;20284;-72
2022/10/29 04:25:28;;;;;;;0.40;0.40;;;16.10;99.90;;;;;;5051635;28;20581;-71
2022/10/29 04:28:36;;;;;;;0.40;0.40;;;16.10;99.90;;;;;;5050526;28;20217;-70
2022/10/29 04:31:30;;;;;;;0.40;0.40;;;16.10;99.90;;;;;;5052057;28;20209;-71
2022/10/29 04:34:18;;;;;;;0.40;0.40;;;16.10;99.90;;;;;;5050973;28;20275;-71
2022/10/29 04:37:06;;;;;;;0.40;0.40;;;16.10;99.90;;;;;;5050938;28;20346;-71
2022/10/29 04:39:56;;;;;;;0.40;0.40;;;16.00;99.90;;;;;;5050578;28;20290;-69
2022/10/29 04:42:44;;;;;;;0.40;0.40;;;16.00;99.90;;;;;;5050973;28;20276;-73
2022/10/29 04:45:32;;;;;;;0.40;0.40;;;16.00;99.90;;;;;;5051123;28;20294;-72
2022/10/29 04:48:21;;;;;;;0.40;0.40;;;16.00;99.90;;;;;;5051324;28;20724;-71
2022/10/29 04:51:19;;;;;;;0.40;0.40;;;16.00;99.90;;;;;;5050223;28;20222;-71
2022/10/29 04:54:07;;;;;;;0.40;0.40;;;16.10;99.90;;;;;;5051739;28;20640;-71
2022/10/29 04:56:56;;;;;;;0.40;0.40;;;16.00;99.90;;;;;;5050202;28;20205;-70
2022/10/29 04:59:44;;;;;;;0.40;0.40;;;16.10;99.90;;;;;;5050354;28;20352;-71
2022/10/29 05:02:32;;;;;;;0.40;0.40;;;16.00;99.90;;;;;;5051057;28;20330;-69
2022/10/29 05:05:21;;;;;;;0.40;0.40;;;16.00;99.90;;;;;;5051333;28;20804;-71
2022/10/29 05:08:10;;;;;;;0.40;0.40;;;16.10;99.90;;;;;;5050506;28;20249;-69
2022/10/29 05:11:02;;;;;;;0.40;0.40;;;16.00;99.90;;;;;;5051719;28;20347;-70
2022/10/29 05:13:51;;;;;;;1.38;1.38;;;16.00;99.90;;;;;;5053594;28;20331;-71
2022/10/29 05:16:39;;;;;;;0.40;0.40;;;16.00;99.90;;;;;;5054464;28;20318;-69
2022/10/29 05:19:27;;;;;;;0.40;0.40;;;16.00;99.90;;;;;;5054600;28;20355;-70
2022/10/29 05:22:15;;;;;;;0.40;0.40;;;16.00;99.90;;;;;;5055150;28;20283;-72
2022/10/29 05:25:04;;;;;;;0.40;0.40;;;16.00;99.90;;;;;;5055096;28;20276;-72
2022/10/29 05:28:00;;;;;;;0.40;0.40;;;15.90;99.90;;;;;;5054363;28;20850;-70
2022/10/29 05:30:51;;;;;;;0.40;0.40;;;15.90;99.90;;;;;;5054640;28;20296;-70
2022/10/29 05:33:39;;;;;;;0.40;0.40;;;15.90;99.90;;;;;;5054667;28;20290;-71
2022/10/29 05:36:27;;;;;;;0.40;0.40;;;15.80;99.90;;;;;;5055325;28;20284;-72
2022/10/29 05:39:15;;;;;;;0.50;0.50;;;15.80;99.90;;;;;;5055033;28;20275;-70
2022/10/29 05:42:04;;;;;;;0.40;0.40;;;15.80;99.90;;;;;;5054218;28;20233;-70
2022/10/29 05:44:52;;;;;;;0.40;0.40;;;15.70;99.90;;;;;;5054824;28;20702;-70
2022/10/29 05:47:41;;;;;;;0.40;0.40;;;15.70;99.90;;;;;;5053914;28;20211;-72
2022/10/29 05:50:30;;;;;;;0.40;0.40;;;15.70;99.90;;;;;;5054270;28;20686;-70
2022/10/29 05:53:18;;;;;;;0.40;0.40;;;15.60;99.90;;;;;;5054524;28;20254;-72
2022/10/29 05:56:07;;;;;;;0.40;0.40;;;15.60;99.90;;;;;;5053323;28;21025;-70
2022/10/29 05:58:55;;;;;;;0.40;0.40;;;15.60;99.90;;;;;;5053280;28;20220;-74
2022/10/29 06:01:43;;;;;;;0.40;0.40;;;15.50;99.90;;;;;;5054868;28;20325;-71
2022/10/29 06:04:35;;;;;;;0.40;0.40;;;15.50;99.90;;;;;;5054265;28;20204;-71
2022/10/29 06:07:23;;;;;;;0.40;0.40;;;15.50;99.90;;;;;;5054792;28;20334;-70
2022/10/29 06:10:11;;;;;;;0.40;0.40;;;15.50;99.90;;;;;;5054644;28;20301;-72
2022/10/29 06:12:59;;;;;;;0.40;0.40;;;15.50;99.90;;;;;;5054858;28;20194;-71
2022/10/29 06:15:48;;;;;;;0.40;0.40;;;15.50;99.90;;;;;;5054687;28;20207;-70
2022/10/29 06:18:36;;;;;;;0.40;0.40;;;15.50;99.90;;;;;;5054575;28;20260;-70
2022/10/29 06:21:26;;;;;;;0.40;0.40;;;15.50;99.90;;;;;;5053925;28;20201;-72
2022/10/29 06:24:14;;;;;;;0.40;0.40;;;15.50;99.90;;;;;;5053490;28;20636;-73
2022/10/29 06:27:02;;;;;;;0.40;0.40;;;15.50;99.90;;;;;;5054746;28;20231;-70
2022/10/29 06:29:50;;;;;;;0.40;0.40;;;15.50;99.90;;;;;;5053246;28;20197;-72
2022/10/29 06:32:38;;;;;;;0.40;0.40;;;15.50;99.90;;;;;;5054776;28;20197;-71
2022/10/29 06:35:26;;;;;;;0.40;0.40;;;15.50;99.90;;;;;;5054349;28;20346;-70
2022/10/29 06:38:16;;;;;;;0.40;0.40;;;15.50;99.90;;;;;;5053703;28;20221;-69
2022/10/29 06:41:04;;;;;;;0.40;0.40;;;15.60;99.90;;;;;;5054051;28;20277;-71
2022/10/29 06:43:52;;;;;;;0.40;0.40;;;15.60;99.90;;;;;;5053506;28;20194;-71
2022/10/29 06:46:40;;;;;;;0.40;0.40;;;15.60;99.90;;;;;;5053635;28;20281;-71
2022/10/29 06:49:28;;;;;;;0.40;0.40;;;15.60;99.90;;;;;;5053686;28;20306;-71
2022/10/29 06:52:16;;;;;;;0.40;0.40;;;15.70;99.90;;;;;;5054345;28;20298;-71
2022/10/29 06:55:07;;;;;;;0.40;0.40;;;15.70;99.90;;;;;;5053158;28;20227;-71
2022/10/29 06:58:01;;;;;;;0.40;0.40;;;15.60;99.90;;;;;;5053190;28;20308;-73
2022/10/29 07:00:49;;;;;;;0.40;0.40;;;15.70;99.90;;;;;;5052671;28;20291;-73
2022/10/29 07:03:37;;;;;;;0.40;0.40;;;15.70;99.90;;;;;;5053346;28;20334;-71
2022/10/29 07:06:26;;;;;;;0.40;0.40;;;15.70;99.90;;;;;;5053140;28;20286;-71
2022/10/29 07:09:14;;;;;;;0.50;0.50;;;15.80;99.90;;;;;;5052792;28;20344;-71
2022/10/29 07:12:03;;;;;;;1.40;1.40;;;15.80;99.90;;;;;;5051220;28;20272;-71
2022/10/29 07:14:52;;;;;;;0.40;0.40;;;15.80;99.90;;;;;;5052622;28;20201;-73
2022/10/29 07:17:40;;;;;;;0.40;0.40;;;15.90;99.90;;;;;;5052662;28;20205;-73
2022/10/29 07:20:30;;;;;;;0.40;0.40;;;15.90;99.90;;;;;;5051921;28;20328;-74
2022/10/29 07:23:18;;;;;;;0.40;0.40;;;15.90;99.90;;;;;;5052238;28;20204;-70
2022/10/29 07:26:06;;;;;;;0.40;0.40;;;15.90;99.90;;;;;;5052863;28;20212;-70
2022/10/29 07:28:57;;;;;;;0.40;0.40;;;16.00;99.90;;;;;;5052229;28;20223;-71
2022/10/29 07:31:45;;;;;;;0.40;0.40;;;16.00;99.90;;;;;;5052624;28;20642;-71
2022/10/29 07:34:33;;;;;;;0.40;0.40;;;16.10;99.90;;;;;;5052462;28;20700;-71
2022/10/29 07:37:21;;;;;;;0.40;0.40;;;16.10;99.90;;;;;;5052701;28;20409;-72
2022/10/29 07:40:10;;;;;;;0.40;0.40;;;16.10;99.90;;;;;;5052220;28;20208;-70
2022/10/29 07:42:58;;;;;;;0.40;0.40;;;16.20;99.90;;;;;;5052058;28;20684;-74
2022/10/29 07:45:49;;;;;;;0.40;0.40;;;16.20;99.90;;;;;;5052582;28;20572;-70
2022/10/29 07:48:37;;;;;;;0.40;0.40;;;16.30;99.90;;;;;;5051771;28;20212;-71
2022/10/29 07:51:25;;;;;;;0.40;0.40;;;16.40;99.90;;;;;;5052243;28;20214;-72
2022/10/29 07:54:13;;;;;;;0.40;0.40;;;16.40;99.90;;;;;;5052418;28;20331;-71
2022/10/29 07:57:01;;;;;;;0.40;0.40;;;16.50;99.90;;;;;;5052721;28;20600;-71
2022/10/29 07:59:50;;;;;;;0.40;0.40;;;16.60;99.90;;;;;;5051936;28;20205;-72
2022/10/29 08:02:41;;;;;;;0.70;0.70;;;16.60;99.90;;;;;;5050802;28;20202;-70
2022/10/29 08:05:30;;;;;;;0.40;0.40;;;16.60;99.90;;;;;;5051225;28;20208;-72
2022/10/29 08:08:18;;;;;;;0.40;0.40;;;16.60;99.90;;;;;;5052370;28;20310;-73
2022/10/29 08:11:06;;;;;;;0.47;0.47;;;16.70;99.90;;;;;;5051053;28;20299;-70
2022/10/29 08:13:54;;;;;;;0.40;0.40;;;16.70;99.90;;;;;;5050931;28;20693;-71
2022/10/29 08:16:42;;;;;;;0.40;0.40;;;16.70;99.90;;;;;;5051118;28;20256;-71
2022/10/29 08:19:32;;;;;;;0.40;0.40;;;16.80;99.90;;;;;;5050412;28;20359;-70
2022/10/29 08:22:20;;;;;;;0.40;0.40;;;16.90;99.90;;;;;;5051273;28;20323;-69
2022/10/29 08:25:09;;;;;;;0.40;0.40;;;17.00;99.90;;;;;;5051963;28;20207;-70
2022/10/29 08:28:01;;;;;;;0.40;0.40;;;17.00;99.90;;;;;;5052139;28;20698;-69
2022/10/29 08:30:50;;;;;;;0.40;0.40;;;17.10;99.90;;;;;;5051132;28;20197;-71
2022/10/29 08:33:38;;;;;;;0.40;0.40;;;17.30;99.90;;;;;;5050885;28;20280;-72
2022/10/29 08:36:27;;;;;;;0.40;0.40;;;17.30;99.90;;;;;;5050706;28;20193;-70
2022/10/29 08:39:15;;;;;;;0.40;0.40;;;17.30;99.90;;;;;;5050752;28;20304;-72
2022/10/29 08:42:15;;;;;;;0.85;0.85;;;17.40;99.90;;;;;;5051012;28;20205;-70
2022/10/29 08:45:24;;;;;;;0.40;0.40;;;17.40;99.90;;;;;;5051650;28;20210;-74
2022/10/29 08:48:31;;;;;;;0.40;0.40;;;17.50;99.90;;;;;;5056683;28;20308;-71
2022/10/29 08:51:23;;;;;;;0.40;0.40;;;17.50;99.90;;;;;;5055506;28;20284;-72
2022/10/29 08:54:16;;;;;;;0.40;0.40;;;17.60;99.90;;;;;;5054731;28;20278;-70
2022/10/29 08:57:26;;;;;;;0.40;0.40;;;17.60;99.90;;;;;;5055062;28;20208;-70
2022/10/29 09:00:23;;;;;;;0.40;0.40;;;17.70;99.90;;;;;;5055649;28;20271;-70
2022/10/29 09:03:16;;;;;;;2.03;2.03;;;17.70;99.90;;;;;;5054675;28;20616;-71
2022/10/29 09:06:18;;;;;;;0.40;0.40;;;17.80;99.90;;;;;;5054788;28;20208;-72
2022/10/29 09:09:29;;;;;;;0.40;0.40;;;17.90;99.90;;;;;;5055179;28;20224;-73
2022/10/29 09:12:52;;;;;;;0.40;0.40;;;18.10;99.90;;;;;;5055301;28;20225;-71
2022/10/29 09:16:03;;;;;;;0.40;0.40;;;18.10;99.90;;;;;;5054863;28;20208;-71
2022/10/29 09:19:15;;;;;;;0.50;0.50;;;18.10;99.90;;;;;;5055435;28;20229;-70
2022/10/29 09:22:19;;;;;;;0.40;0.40;;;18.20;99.90;;;;;;5054245;28;20190;-72
2022/10/29 09:25:25;;;;;;;0.50;0.50;;;18.20;99.90;;;;;;5054343;28;20670;-72
2022/10/29 09:28:27;;;;;;;0.40;0.40;;;18.30;99.90;;;;;;5054178;28;20287;-72
2022/10/29 09:31:32;;;;;;;0.40;0.40;;;18.30;99.90;;;;;;5053713;28;20200;-71
2022/10/29 09:34:37;;;;;;;0.40;0.40;;;18.30;99.90;;;;;;5054568;28;20284;-71
2022/10/29 09:37:56;;;;;;;0.47;0.47;;;18.30;99.90;;;;;;5055069;28;20290;-71
2022/10/29 09:40:59;;;;;;;0.40;0.40;;;18.30;99.90;;;;;;5054654;28;20208;-71
2022/10/29 09:44:00;;;;;;;0.40;0.40;;;18.30;99.90;;;;;;5054982;28;20208;-71
2022/10/29 09:47:14;;;;;;;0.40;0.40;;;18.30;99.90;;;;;;5053667;28;20198;-71
2022/10/29 09:50:31;;;;;;;0.40;0.40;;;18.40;99.90;;;;;;5053101;28;20224;-72
2022/10/29 09:53:28;;;;;;;0.40;0.40;;;18.40;99.90;;;;;;5053568;28;20303;-73
2022/10/29 09:56:20;;;;;;;0.40;0.40;;;18.40;99.90;;;;;;5053641;28;20212;-74
2022/10/29 09:59:19;;;;;;;0.98;0.98;;;18.40;99.90;;;;;;5054129;28;20224;-71
2022/10/29 10:02:29;;;;;;;0.40;0.40;;;18.40;99.90;;;;;;5054465;28;20549;-72
2022/10/29 10:05:29;;;;;;;0.40;0.40;;;18.40;99.90;;;;;;5053434;28;20205;-70
2022/10/29 10:08:22;;;;;;;0.40;0.40;;;18.40;99.90;;;;;;5054860;28;20256;-71
2022/10/29 10:11:25;;;;;;;0.40;0.40;;;18.40;99.90;;;;;;5054368;28;20292;-70
2022/10/29 10:14:21;;;;;;;0.40;0.40;;;18.40;99.90;;;;;;5053699;28;20208;-74
2022/10/29 10:17:19;;;;;;;0.40;0.40;;;18.40;99.90;;;;;;5053793;28;20198;-71
2022/10/29 10:20:27;;;;;;;0.35;0.35;;;18.50;99.90;;;;;;5079580;23;20264;-66
2022/10/29 10:23:24;;;;;;;0.40;0.40;;;18.60;99.90;;;;;;5055988;28;20228;-66
2022/10/29 10:26:38;;;;;;;0.40;0.40;;;18.50;99.90;;;;;;5058505;28;20261;-66
2022/10/29 10:29:27;;;;;;;0.40;0.40;;;18.50;99.90;;;;;;5064572;28;20281;-66
2022/10/29 10:32:16;;;;;;;0.40;0.40;;;18.60;99.90;;;;;;5065002;28;20708;-66
2022/10/29 10:35:25;;;;;;;0.40;0.40;;;18.60;99.90;;;;;;5060606;28;20225;-66
2022/10/29 10:38:14;;;;;;;1.25;0.75;;;18.80;99.90;;;;;;5055807;28;20278;-66
2022/10/29 10:41:06;;;;;;;0.40;0.40;;;18.90;99.90;;;;;;5055648;28;20198;-65
2022/10/29 10:43:59;;;;;;;0.40;0.40;;;18.80;99.90;;;;;;5055104;28;20248;-66
2022/10/29 10:46:50;;;;;;;0.40;0.40;;;18.90;99.90;;;;;;5055949;28;20211;-66
2022/10/29 10:49:39;;;;;;;0.40;0.40;;;19.00;99.90;;;;;;5054347;28;20213;-66
2022/10/29 10:52:30;;;;;;;2.25;2.15;;;19.00;99.90;;;;;;5053476;28;20217;-65
2022/10/29 10:55:25;;;;;;;0.40;0.40;;;19.10;99.90;;;;;;5053667;28;20689;-65
2022/10/29 10:58:19;;;;;;;0.30;0.30;;;19.20;99.90;;;;;;5054201;28;20451;-65
2022/10/29 11:01:13;;;;;;;0.40;0.40;;;19.20;99.90;;;;;;5054308;28;20273;-65
2022/10/29 11:04:10;;;;;;;0.40;0.40;;;19.30;99.90;;;;;;5054337;28;20220;-65
2022/10/29 11:07:02;;;;;;;0.40;0.40;;;19.30;99.90;;;;;;5053654;28;20707;-65
2022/10/29 11:09:52;;;;;;;0.40;0.40;;;19.30;99.90;;;;;;5052810;28;20239;-65
2022/10/29 11:12:45;;;;;;;0.40;0.40;;;19.30;99.90;;;;;;5053809;28;20713;-65
2022/10/29 11:15:37;;;;;;;0.40;0.40;;;19.40;99.90;;;;;;5053654;28;20674;-66
2022/10/29 11:18:32;;;;;;;0.40;0.40;;;19.40;99.90;;;;;;5053283;28;20257;-65
2022/10/29 11:21:26;;;;;;;0.40;0.40;;;19.50;99.90;;;;;;5053917;28;20302;-67
2022/10/29 11:24:20;;;;;;;0.40;0.40;;;19.50;99.90;;;;;;5059491;28;20665;-65
2022/10/29 11:27:20;;;;;;;0.40;0.40;;;19.60;99.90;;;;;;5053454;28;20280;-65
2022/10/29 11:30:12;;;;;;;0.40;0.40;;;19.70;99.90;;;;;;5053819;28;20271;-66
2022/10/29 11:33:07;;;;;;;0.30;0.30;;;19.70;99.90;;;;;;5054602;28;20296;-65
2022/10/29 11:36:01;;;;;;;0.40;0.40;;;19.80;99.90;;;;;;5053923;28;20216;-66
2022/10/29 11:38:53;;;;;;;0.80;0.80;;;19.80;99.90;;;;;;5055680;28;20359;-66
2022/10/29 11:41:48;;;;;;;0.40;0.40;;;19.90;99.90;;;;;;5055681;28;20233;-66
2022/10/29 11:44:39;;;;;;;0.40;0.40;;;19.90;99.90;;;;;;5057399;28;20240;-66
2022/10/29 11:47:42;;;;;;;0.40;0.40;;;20.10;99.90;;;;;;5055508;28;20335;-65
2022/10/29 11:50:42;;;;;;;0.40;0.40;;;20.00;99.90;;;;;;5054983;28;20254;-66
2022/10/29 11:53:48;;;;;;;0.40;0.40;;;20.10;99.90;;;;;;5057063;28;20304;-66
2022/10/29 11:56:47;;;;;;;0.40;0.40;;;20.20;99.90;;;;;;5051810;28;20272;-66
2022/10/29 11:59:59;;;;;;;0.40;0.40;;;20.20;99.90;;;;;;5045536;28;20272;-67
2022/10/29 12:03:06;;;;;;;0.40;0.40;;;20.40;99.90;;;;;;5053554;28;20225;-66
2022/10/29 12:06:02;;;;;;;0.40;0.40;;;20.40;99.90;;;;;;5053459;28;20433;-66
2022/10/29 12:09:09;;;;;;;0.40;0.40;;;20.50;99.90;;;;;;5053518;28;20290;-66
2022/10/29 12:12:04;;;;;;;0.30;0.30;;;20.60;99.90;;;;;;5053189;28;20729;-66
2022/10/29 12:14:59;;;;;;;0.40;0.40;;;20.60;99.90;;;;;;5051912;28;20218;-66
2022/10/29 12:17:56;;;;;;;0.73;0.73;;;20.70;99.90;;;;;;5051978;28;20233;-66
2022/10/29 12:20:49;;;;;;;0.40;0.40;;;20.80;99.90;;;;;;5053280;28;20181;-66
2022/10/29 12:23:52;;;;;;;0.40;0.40;;;20.70;99.90;;;;;;5055406;28;20233;-66
2022/10/29 12:26:45;;;;;;;0.40;0.40;;;20.70;99.90;;;;;;5037429;28;20336;-66
2022/10/29 12:29:43;;;;;;;0.40;0.40;;;20.70;99.90;;;;;;5037147;28;20297;-66
2022/10/29 12:32:36;;;;;;;0.40;0.40;;;20.70;99.90;;;;;;5037892;28;20705;-66
2022/10/29 12:35:33;;;;;;;0.47;0.47;;;20.70;99.90;;;;;;5037349;28;20277;-65
2022/10/29 12:38:32;;;;;;;0.60;0.60;;;20.70;99.90;;;;;;5039423;28;20305;-66
2022/10/29 12:41:24;;;;;;;0.40;0.40;;;20.80;99.90;;;;;;5037874;28;20276;-66
2022/10/29 12:44:22;;;;;;;2.92;2.67;;;20.90;99.90;;;;;;5038206;28;20274;-66
2022/10/29 12:47:17;;;;;;;1.02;1.02;;;20.80;99.90;;;;;;5037863;28;20260;-66
2022/10/29 12:50:20;;;;;;;0.40;0.40;;;20.90;99.90;;;;;;5047734;28;20285;-66
2022/10/29 12:53:17;;;;;;;0.40;0.40;;;20.90;99.90;;;;;;5050582;28;20229;-67
2022/10/29 12:56:06;;;;;;;0.30;0.30;;;21.00;99.90;;;;;;5038867;28;20247;-67
2022/10/29 12:58:58;;;;;;;0.40;0.40;;;21.00;99.90;;;;;;5056912;28;20248;-66
2022/10/29 13:01:48;;;;;;;0.40;0.40;;;21.10;99.90;;;;;;5057271;28;20209;-66
2022/10/29 13:05:17;;;;;;;0.40;0.40;;;21.10;99.90;;;;;;5056832;28;20201;-66
2022/10/29 13:08:28;;;;;;;0.40;0.40;;;21.10;99.90;;;;;;5057357;28;20201;-67
2022/10/29 13:11:24;;;;;;;0.40;0.40;;;21.00;99.90;;;;;;5076341;28;20224;-67
2022/10/29 13:14:13;;;;;;;0.40;0.40;;;21.10;99.90;;;;;;5077198;28;20255;-67
2022/10/29 13:17:05;;;;;;;0.30;0.30;;;21.10;99.90;;;;;;5076830;28;20212;-67
2022/10/29 13:19:56;;;;;;;0.40;0.40;;;21.10;99.90;;;;;;5075269;28;20252;-67
2022/10/29 13:22:52;;;;;;;0.40;0.40;;;21.00;99.90;;;;;;5075580;28;20236;-67
2022/10/29 13:25:48;;;;;;;0.40;0.40;;;21.00;99.90;;;;;;5075770;28;20202;-67
2022/10/29 13:28:51;;;;;;;0.40;0.40;;;21.00;99.90;;;;;;5056509;28;20224;-66
2022/10/29 13:31:49;;;;;;;0.40;0.40;;;20.90;99.90;;;;;;5054823;28;20203;-66
2022/10/29 13:34:52;;;;;;;0.30;0.30;;;20.90;99.90;;;;;;5057442;28;20229;-66
2022/10/29 13:38:12;;;;;;;0.40;0.40;;;20.90;99.90;;;;;;5056315;28;20289;-66
2022/10/29 13:41:15;;;;;;;0.40;0.40;;;20.80;99.90;;;;;;5055444;28;20288;-66
2022/10/29 13:44:10;;;;;;;0.40;0.40;;;21.20;99.90;;;;;;5056527;28;20203;-67
2022/10/29 13:47:00;;;;;;;0.40;0.40;;;20.70;99.90;;;;;;5058106;28;20257;-66
2022/10/29 13:49:49;;;;;;;0.40;0.40;;;20.60;99.90;;;;;;5056325;28;20221;-66
2022/10/29 13:52:40;;;;;;;0.40;0.40;;;20.60;99.90;;;;;;5056314;28;20283;-67
2022/10/29 13:55:32;;;;;;;0.40;0.40;;;20.60;99.90;;;;;;5055382;28;20252;-67
2022/10/29 13:58:28;;;;;;;0.30;0.30;;;20.50;99.90;;;;;;5037373;28;20681;-66
2022/10/29 14:01:19;;;;;;;0.40;0.40;;;20.50;99.90;;;;;;5034953;28;20671;-66
2022/10/29 14:04:21;;;;;;;0.30;0.30;;;20.60;99.90;;;;;;5036057;28;20213;-66
2022/10/29 14:07:17;;;;;;;0.40;0.40;;;20.80;99.90;;;;;;5035027;28;20202;-66
2022/10/29 14:10:17;;;;;;;0.40;0.40;;;20.90;99.90;;;;;;5034519;28;20304;-66
2022/10/29 14:13:12;;;;;;;0.40;0.40;;;21.00;99.90;;;;;;5034736;28;20285;-66
2022/10/29 14:16:02;;;;;;;0.40;0.40;;;21.00;99.90;;;;;;5034454;28;20261;-66
2022/10/29 14:18:52;;;;;;;0.30;0.30;;;20.90;99.90;;;;;;5034923;28;20807;-67
2022/10/29 14:21:40;;;;;;;0.50;0.50;;;20.90;99.90;;;;;;5034679;28;20281;-66
2022/10/29 14:24:37;;;;;;;0.30;0.30;;;20.80;99.90;;;;;;5034330;28;20579;-67
2022/10/29 14:27:26;;;;;;;0.30;0.30;;;20.80;99.90;;;;;;5033860;28;20281;-66
2022/10/29 14:30:19;;;;;;;0.40;0.40;;;20.60;99.90;;;;;;5034579;28;20300;-66
2022/10/29 14:33:24;;;;;;;0.40;0.40;;;20.60;99.90;;;;;;5033866;28;20233;-66
2022/10/29 14:36:19;;;;;;;0.40;0.40;;;20.70;99.90;;;;;;5034357;28;20285;-67
2022/10/29 14:39:17;;;;;;;0.40;0.40;;;20.70;99.90;;;;;;5033591;28;20313;-67
2022/10/29 14:42:13;;;;;;;0.40;0.40;;;20.60;99.90;;;;;;5034129;28;20198;-67
2022/10/29 14:45:05;;;;;;;0.30;0.30;;;20.60;99.90;;;;;;5033023;28;20213;-67
2022/10/29 14:47:55;;;;;;;0.40;0.40;;;20.60;99.90;;;;;;5033994;28;20646;-67
2022/10/29 14:50:47;;;;;;;0.40;0.40;;;20.60;99.90;;;;;;5032462;28;20691;-67
2022/10/29 14:53:37;;;;;;;0.40;0.40;;;20.50;99.90;;;;;;5033475;28;20327;-67
2022/10/29 14:56:32;;;;;;;0.38;0.38;;;20.50;99.90;;;;;;5033845;28;20260;-67
2022/10/29 14:59:24;;;;;;;0.30;0.30;;;20.50;99.90;;;;;;5033098;28;20250;-67
2022/10/29 15:02:17;;;;;;;0.30;0.30;;;20.50;99.90;;;;;;5033587;28;20202;-67